sensor_id;sensor_type;location;lat;lon;timestamp;temperature;humidity
14172;DHT22;7165;52.388;4.928;2022-10-31T00:01:01;13.40;99.90
14172;DHT22;7165;52.388;4.928;2022-10-31T00:03:28;13.40;99.90
14172;DHT22;7165;52.388;4.928;2022-10-31T00:05:56;13.40;99.90
14172;DHT22;7165;52.388;4.928;2022-10-31T00:08:23;13.30;99.90
14172;DHT22;7165;52.388;4.928;2022-10-31T00:10:49;13.40;99.90
14172;DHT22;7165;52.388;4.928;2022-10-31T00:13:16;13.30;99.90
14172;DHT22;7165;52.388;4.928;2022-10-31T00:15:42;13.30;99.90
14172;DHT22;7165;52.388;4.928;2022-10-31T00:18:10;13.30;99.90
14172;DHT22;7165;52.388;4.928;2022-10-31T00:20:37;13.30;99.90
14172;DHT22;7165;52.388;4.928;2022-10-31T00:23:06;13.30;99.90
14172;DHT22;7165;52.388;4.928;2022-10-31T00:25:34;13.30;99.90
14172;DHT22;7165;52.388;4.928;2022-10-31T00:28:02;13.20;99.90
14172;DHT22;7165;52.388;4.928;2022-10-31T00:30:28;13.20;99.90
14172;DHT22;7165;52.388;4.928;2022-10-31T00:33:05;13.20;99.90
14172;DHT22;7165;52.388;4.928;2022-10-31T00:35:32;13.20;99.90
14172;DHT22;7165;52.388;4.928;2022-10-31T00:37:58;13.20;99.90
14172;DHT22;7165;52.388;4.928;2022-10-31T00:40:26;13.20;99.90
14172;DHT22;7165;52.388;4.928;2022-10-31T00:42:53;13.10;99.90
14172;DHT22;7165;52.388;4.928;2022-10-31T00:45:20;13.20;99.90
14172;DHT22;7165;52.388;4.928;2022-10-31T00:47:46;13.20;99.90
14172;DHT22;7165;52.388;4.928;2022-10-31T00:50:13;13.20;99.90
14172;DHT22;7165;52.388;4.928;2022-10-31T00:52:40;13.20;99.90
14172;DHT22;7165;52.388;4.928;2022-10-31T00:55:07;13.20;99.90
14172;DHT22;7165;52.388;4.928;2022-10-31T00:57:35;13.20;99.90
14172;DHT22;7165;52.388;4.928;2022-10-31T01:00:02;13.20;99.90
14172;DHT22;7165;52.388;4.928;2022-10-31T01:02:29;13.10;99.90
14172;DHT22;7165;52.388;4.928;2022-10-31T01:04:55;13.10;99.90
14172;DHT22;7165;52.388;4.928;2022-10-31T01:07:22;13.10;99.90
14172;DHT22;7165;52.388;4.928;2022-10-31T01:09:48;13.10;99.90
14172;DHT22;7165;52.388;4.928;2022-10-31T01:12:15;13.10;99.90
14172;DHT22;7165;52.388;4.928;2022-10-31T01:14:45;13.10;99.90
14172;DHT22;7165;52.388;4.928;2022-10-31T01:17:11;13.10;99.90
14172;DHT22;7165;52.388;4.928;2022-10-31T01:19:38;13.00;99.90
14172;DHT22;7165;52.388;4.928;2022-10-31T01:22:05;13.00;99.90
14172;DHT22;7165;52.388;4.928;2022-10-31T01:24:32;13.00;99.90
14172;DHT22;7165;52.388;4.928;2022-10-31T01:26:58;13.00;99.90
14172;DHT22;7165;52.388;4.928;2022-10-31T01:29:25;13.10;99.90
14172;DHT22;7165;52.388;4.928;2022-10-31T01:31:53;13.10;99.90
14172;DHT22;7165;52.388;4.928;2022-10-31T01:34:20;13.10;99.90
14172;DHT22;7165;52.388;4.928;2022-10-31T01:36:46;13.20;99.90
14172;DHT22;7165;52.388;4.928;2022-10-31T01:39:17;13.10;99.90
14172;DHT22;7165;52.388;4.928;2022-10-31T01:41:46;13.10;99.90
14172;DHT22;7165;52.388;4.928;2022-10-31T01:44:48;13.10;99.90
14172;DHT22;7165;52.388;4.928;2022-10-31T01:47:19;13.10;99.90
14172;DHT22;7165;52.388;4.928;2022-10-31T01:49:48;13.00;99.90
14172;DHT22;7165;52.388;4.928;2022-10-31T01:52:20;13.00;99.90
14172;DHT22;7165;52.388;4.928;2022-10-31T01:54:50;13.00;99.90
14172;DHT22;7165;52.388;4.928;2022-10-31T01:57:18;12.90;99.90
14172;DHT22;7165;52.388;4.928;2022-10-31T01:59:49;12.90;99.90
14172;DHT22;7165;52.388;4.928;2022-10-31T02:02:19;12.90;99.90
14172;DHT22;7165;52.388;4.928;2022-10-31T02:04:47;12.90;99.90
14172;DHT22;7165;52.388;4.928;2022-10-31T02:07:16;12.90;99.90
14172;DHT22;7165;52.388;4.928;2022-10-31T02:09:45;12.90;99.90
14172;DHT22;7165;52.388;4.928;2022-10-31T02:12:12;12.90;99.90
14172;DHT22;7165;52.388;4.928;2022-10-31T02:14:40;12.90;99.90
14172;DHT22;7165;52.388;4.928;2022-10-31T02:17:07;12.90;99.90
14172;DHT22;7165;52.388;4.928;2022-10-31T02:19:43;12.90;99.90
14172;DHT22;7165;52.388;4.928;2022-10-31T02:22:18;12.80;99.90
14172;DHT22;7165;52.388;4.928;2022-10-31T02:24:58;12.80;99.90
14172;DHT22;7165;52.388;4.928;2022-10-31T02:27:48;12.80;99.90
14172;DHT22;7165;52.388;4.928;2022-10-31T02:30:20;12.70;99.90
14172;DHT22;7165;52.388;4.928;2022-10-31T02:32:56;12.70;99.90
14172;DHT22;7165;52.388;4.928;2022-10-31T02:35:34;12.60;99.90
14172;DHT22;7165;52.388;4.928;2022-10-31T02:38:10;12.60;99.90
14172;DHT22;7165;52.388;4.928;2022-10-31T02:40:44;12.50;99.90
14172;DHT22;7165;52.388;4.928;2022-10-31T02:43:19;12.50;99.90
14172;DHT22;7165;52.388;4.928;2022-10-31T02:45:50;12.50;99.90
14172;DHT22;7165;52.388;4.928;2022-10-31T02:48:26;12.50;99.90
14172;DHT22;7165;52.388;4.928;2022-10-31T02:50:56;12.50;99.90
14172;DHT22;7165;52.388;4.928;2022-10-31T02:53:24;12.50;99.90
14172;DHT22;7165;52.388;4.928;2022-10-31T02:55:58;12.50;99.90
14172;DHT22;7165;52.388;4.928;2022-10-31T02:58:27;12.40;99.90
14172;DHT22;7165;52.388;4.928;2022-10-31T03:01:16;12.40;99.90
14172;DHT22;7165;52.388;4.928;2022-10-31T03:04:16;12.40;99.90
14172;DHT22;7165;52.388;4.928;2022-10-31T03:06:48;12.30;99.90
14172;DHT22;7165;52.388;4.928;2022-10-31T03:09:22;12.30;99.90
14172;DHT22;7165;52.388;4.928;2022-10-31T03:11:57;12.20;99.90
14172;DHT22;7165;52.388;4.928;2022-10-31T03:14:28;12.20;99.90
14172;DHT22;7165;52.388;4.928;2022-10-31T03:17:00;12.20;99.90
14172;DHT22;7165;52.388;4.928;2022-10-31T03:19:31;12.20;99.90
14172;DHT22;7165;52.388;4.928;2022-10-31T03:22:02;12.20;99.90
14172;DHT22;7165;52.388;4.928;2022-10-31T03:24:34;12.20;99.90
14172;DHT22;7165;52.388;4.928;2022-10-31T03:27:03;12.10;99.90
14172;DHT22;7165;52.388;4.928;2022-10-31T03:29:33;12.10;99.90
14172;DHT22;7165;52.388;4.928;2022-10-31T03:32:04;12.10;99.90
14172;DHT22;7165;52.388;4.928;2022-10-31T03:34:34;12.10;99.90
14172;DHT22;7165;52.388;4.928;2022-10-31T03:37:04;12.10;99.90
14172;DHT22;7165;52.388;4.928;2022-10-31T03:39:33;12.10;99.90
14172;DHT22;7165;52.388;4.928;2022-10-31T03:42:05;12.00;99.90
14172;DHT22;7165;52.388;4.928;2022-10-31T03:44:34;12.10;99.90
14172;DHT22;7165;52.388;4.928;2022-10-31T03:47:02;12.00;99.90
14172;DHT22;7165;52.388;4.928;2022-10-31T03:49:30;12.00;99.90
14172;DHT22;7165;52.388;4.928;2022-10-31T03:52:02;11.90;99.90
14172;DHT22;7165;52.388;4.928;2022-10-31T03:54:37;11.90;99.90
14172;DHT22;7165;52.388;4.928;2022-10-31T03:57:11;11.80;99.90
14172;DHT22;7165;52.388;4.928;2022-10-31T03:59:42;11.80;99.90
14172;DHT22;7165;52.388;4.928;2022-10-31T04:02:14;11.70;99.90
14172;DHT22;7165;52.388;4.928;2022-10-31T04:04:42;11.70;99.90
14172;DHT22;7165;52.388;4.928;2022-10-31T04:07:12;11.60;99.90
14172;DHT22;7165;52.388;4.928;2022-10-31T04:09:42;11.70;99.90
14172;DHT22;7165;52.388;4.928;2022-10-31T04:12:12;11.70;99.90
14172;DHT22;7165;52.388;4.928;2022-10-31T04:14:42;11.70;99.90
14172;DHT22;7165;52.388;4.928;2022-10-31T04:17:12;11.80;99.90
14172;DHT22;7165;52.388;4.928;2022-10-31T04:19:39;11.80;99.90
14172;DHT22;7165;52.388;4.928;2022-10-31T04:22:06;11.80;99.90
14172;DHT22;7165;52.388;4.928;2022-10-31T04:24:34;11.90;99.90
14172;DHT22;7165;52.388;4.928;2022-10-31T04:27:02;11.90;99.90
14172;DHT22;7165;52.388;4.928;2022-10-31T04:29:28;12.00;99.90
14172;DHT22;7165;52.388;4.928;2022-10-31T04:31:55;12.00;99.90
14172;DHT22;7165;52.388;4.928;2022-10-31T04:34:22;12.00;99.90
14172;DHT22;7165;52.388;4.928;2022-10-31T04:36:48;12.00;99.90
14172;DHT22;7165;52.388;4.928;2022-10-31T04:39:15;12.00;99.90
14172;DHT22;7165;52.388;4.928;2022-10-31T04:41:43;12.00;99.90
14172;DHT22;7165;52.388;4.928;2022-10-31T04:44:09;12.00;99.90
14172;DHT22;7165;52.388;4.928;2022-10-31T04:46:36;12.10;99.90
14172;DHT22;7165;52.388;4.928;2022-10-31T04:49:03;12.00;99.90
14172;DHT22;7165;52.388;4.928;2022-10-31T04:51:29;12.00;99.90
14172;DHT22;7165;52.388;4.928;2022-10-31T04:53:56;12.00;99.90
14172;DHT22;7165;52.388;4.928;2022-10-31T04:56:23;12.00;99.90
14172;DHT22;7165;52.388;4.928;2022-10-31T04:58:51;12.00;99.90
14172;DHT22;7165;52.388;4.928;2022-10-31T05:01:17;12.00;99.90
14172;DHT22;7165;52.388;4.928;2022-10-31T05:03:44;12.00;99.90
14172;DHT22;7165;52.388;4.928;2022-10-31T05:06:11;12.00;99.90
14172;DHT22;7165;52.388;4.928;2022-10-31T05:08:37;11.90;99.90
14172;DHT22;7165;52.388;4.928;2022-10-31T05:11:04;11.90;99.90
14172;DHT22;7165;52.388;4.928;2022-10-31T05:13:31;11.90;99.90
14172;DHT22;7165;52.388;4.928;2022-10-31T05:15:59;11.90;99.90
14172;DHT22;7165;52.388;4.928;2022-10-31T05:18:26;11.90;99.90
14172;DHT22;7165;52.388;4.928;2022-10-31T05:20:52;11.90;99.90
14172;DHT22;7165;52.388;4.928;2022-10-31T05:23:19;11.90;99.90
14172;DHT22;7165;52.388;4.928;2022-10-31T05:25:46;12.00;99.90
14172;DHT22;7165;52.388;4.928;2022-10-31T05:28:12;12.00;99.90
14172;DHT22;7165;52.388;4.928;2022-10-31T05:30:39;12.00;99.90
14172;DHT22;7165;52.388;4.928;2022-10-31T05:33:07;12.00;99.90
14172;DHT22;7165;52.388;4.928;2022-10-31T05:35:34;12.00;99.90
14172;DHT22;7165;52.388;4.928;2022-10-31T05:38:01;11.90;99.90
14172;DHT22;7165;52.388;4.928;2022-10-31T05:40:27;11.90;99.90
14172;DHT22;7165;52.388;4.928;2022-10-31T05:42:57;11.90;99.90
14172;DHT22;7165;52.388;4.928;2022-10-31T05:45:24;11.80;99.90
14172;DHT22;7165;52.388;4.928;2022-10-31T05:47:51;11.80;99.90
14172;DHT22;7165;52.388;4.928;2022-10-31T05:50:20;11.80;99.90
14172;DHT22;7165;52.388;4.928;2022-10-31T05:52:47;11.70;99.90
14172;DHT22;7165;52.388;4.928;2022-10-31T05:55:14;11.70;99.90
14172;DHT22;7165;52.388;4.928;2022-10-31T05:57:40;11.70;99.90
14172;DHT22;7165;52.388;4.928;2022-10-31T06:00:08;11.60;99.90
14172;DHT22;7165;52.388;4.928;2022-10-31T06:02:44;11.60;99.90
14172;DHT22;7165;52.388;4.928;2022-10-31T06:05:11;11.70;99.90
14172;DHT22;7165;52.388;4.928;2022-10-31T06:07:39;11.60;99.90
14172;DHT22;7165;52.388;4.928;2022-10-31T06:10:08;11.70;99.90
14172;DHT22;7165;52.388;4.928;2022-10-31T06:12:35;11.70;99.90
14172;DHT22;7165;52.388;4.928;2022-10-31T06:15:04;11.70;99.90
14172;DHT22;7165;52.388;4.928;2022-10-31T06:17:31;11.80;99.90
14172;DHT22;7165;52.388;4.928;2022-10-31T06:19:57;11.80;99.90
14172;DHT22;7165;52.388;4.928;2022-10-31T06:22:24;11.80;99.90
14172;DHT22;7165;52.388;4.928;2022-10-31T06:24:52;11.80;99.90
14172;DHT22;7165;52.388;4.928;2022-10-31T06:27:19;11.80;99.90
14172;DHT22;7165;52.388;4.928;2022-10-31T06:29:45;11.70;99.90
14172;DHT22;7165;52.388;4.928;2022-10-31T06:32:12;11.70;99.90
14172;DHT22;7165;52.388;4.928;2022-10-31T06:34:39;11.70;99.90
14172;DHT22;7165;52.388;4.928;2022-10-31T06:37:06;11.70;99.90
14172;DHT22;7165;52.388;4.928;2022-10-31T06:39:34;11.70;99.90
14172;DHT22;7165;52.388;4.928;2022-10-31T06:42:02;11.60;99.90
14172;DHT22;7165;52.388;4.928;2022-10-31T06:44:29;11.50;99.90
14172;DHT22;7165;52.388;4.928;2022-10-31T06:46:55;11.40;99.90
14172;DHT22;7165;52.388;4.928;2022-10-31T06:49:22;11.40;99.90
14172;DHT22;7165;52.388;4.928;2022-10-31T06:51:50;11.40;99.90
14172;DHT22;7165;52.388;4.928;2022-10-31T06:54:17;11.50;99.90
14172;DHT22;7165;52.388;4.928;2022-10-31T06:56:45;11.60;99.90
14172;DHT22;7165;52.388;4.928;2022-10-31T06:59:13;11.60;99.90
14172;DHT22;7165;52.388;4.928;2022-10-31T07:01:40;11.70;99.90
14172;DHT22;7165;52.388;4.928;2022-10-31T07:04:07;11.70;99.90
14172;DHT22;7165;52.388;4.928;2022-10-31T07:06:34;11.70;99.90
14172;DHT22;7165;52.388;4.928;2022-10-31T07:09:01;11.80;99.90
14172;DHT22;7165;52.388;4.928;2022-10-31T07:11:27;11.80;99.90
14172;DHT22;7165;52.388;4.928;2022-10-31T07:13:54;11.90;99.90
14172;DHT22;7165;52.388;4.928;2022-10-31T07:16:22;11.90;99.90
14172;DHT22;7165;52.388;4.928;2022-10-31T07:18:49;12.00;99.90
14172;DHT22;7165;52.388;4.928;2022-10-31T07:21:15;12.00;99.90
14172;DHT22;7165;52.388;4.928;2022-10-31T07:23:42;12.00;99.90
14172;DHT22;7165;52.388;4.928;2022-10-31T07:26:09;12.00;99.90
14172;DHT22;7165;52.388;4.928;2022-10-31T07:28:36;12.00;99.90
14172;DHT22;7165;52.388;4.928;2022-10-31T07:31:03;12.00;99.90
14172;DHT22;7165;52.388;4.928;2022-10-31T07:33:31;12.10;99.90
14172;DHT22;7165;52.388;4.928;2022-10-31T07:35:57;12.10;99.90
14172;DHT22;7165;52.388;4.928;2022-10-31T07:38:24;12.20;99.90
14172;DHT22;7165;52.388;4.928;2022-10-31T07:40:52;12.20;99.90
14172;DHT22;7165;52.388;4.928;2022-10-31T07:43:19;12.30;99.90
14172;DHT22;7165;52.388;4.928;2022-10-31T07:45:49;12.30;99.90
14172;DHT22;7165;52.388;4.928;2022-10-31T07:48:16;12.30;99.90
14172;DHT22;7165;52.388;4.928;2022-10-31T07:50:44;12.40;99.90
14172;DHT22;7165;52.388;4.928;2022-10-31T07:53:12;12.40;99.90
14172;DHT22;7165;52.388;4.928;2022-10-31T07:55:40;12.40;99.90
14172;DHT22;7165;52.388;4.928;2022-10-31T07:58:08;12.40;99.90
14172;DHT22;7165;52.388;4.928;2022-10-31T08:00:36;12.50;99.90
14172;DHT22;7165;52.388;4.928;2022-10-31T08:03:04;12.50;99.90
14172;DHT22;7165;52.388;4.928;2022-10-31T08:05:32;12.50;99.90
14172;DHT22;7165;52.388;4.928;2022-10-31T08:08:01;12.60;99.90
14172;DHT22;7165;52.388;4.928;2022-10-31T08:10:28;12.60;99.90
14172;DHT22;7165;52.388;4.928;2022-10-31T08:12:55;12.60;99.90
14172;DHT22;7165;52.388;4.928;2022-10-31T08:15:23;12.70;99.90
14172;DHT22;7165;52.388;4.928;2022-10-31T08:17:49;12.70;99.90
14172;DHT22;7165;52.388;4.928;2022-10-31T08:20:16;12.70;99.90
14172;DHT22;7165;52.388;4.928;2022-10-31T08:22:43;12.80;99.90
14172;DHT22;7165;52.388;4.928;2022-10-31T08:25:19;12.80;99.90
14172;DHT22;7165;52.388;4.928;2022-10-31T08:27:49;12.90;99.90
14172;DHT22;7165;52.388;4.928;2022-10-31T08:30:16;12.90;99.90
14172;DHT22;7165;52.388;4.928;2022-10-31T08:32:42;13.00;99.90
14172;DHT22;7165;52.388;4.928;2022-10-31T08:35:09;13.10;99.90
14172;DHT22;7165;52.388;4.928;2022-10-31T08:37:36;13.20;99.90
14172;DHT22;7165;52.388;4.928;2022-10-31T08:40:03;13.20;99.90
14172;DHT22;7165;52.388;4.928;2022-10-31T08:42:31;13.30;99.90
14172;DHT22;7165;52.388;4.928;2022-10-31T08:44:57;13.40;99.90
14172;DHT22;7165;52.388;4.928;2022-10-31T08:47:24;13.50;99.90
14172;DHT22;7165;52.388;4.928;2022-10-31T08:49:51;13.60;99.90
14172;DHT22;7165;52.388;4.928;2022-10-31T08:52:17;13.60;99.90
14172;DHT22;7165;52.388;4.928;2022-10-31T08:54:44;13.70;99.90
14172;DHT22;7165;52.388;4.928;2022-10-31T08:57:10;13.80;99.90
14172;DHT22;7165;52.388;4.928;2022-10-31T08:59:38;13.80;99.90
14172;DHT22;7165;52.388;4.928;2022-10-31T09:02:07;13.90;99.90
14172;DHT22;7165;52.388;4.928;2022-10-31T09:04:33;13.90;99.90
14172;DHT22;7165;52.388;4.928;2022-10-31T09:07:00;14.00;99.90
14172;DHT22;7165;52.388;4.928;2022-10-31T09:09:26;13.90;99.90
14172;DHT22;7165;52.388;4.928;2022-10-31T09:11:53;14.00;99.90
14172;DHT22;7165;52.388;4.928;2022-10-31T09:14:20;14.10;99.90
14172;DHT22;7165;52.388;4.928;2022-10-31T09:16:48;14.00;99.90
14172;DHT22;7165;52.388;4.928;2022-10-31T09:19:14;14.00;99.90
14172;DHT22;7165;52.388;4.928;2022-10-31T09:21:41;14.10;99.90
14172;DHT22;7165;52.388;4.928;2022-10-31T09:24:08;14.10;99.90
14172;DHT22;7165;52.388;4.928;2022-10-31T09:26:34;14.10;99.90
14172;DHT22;7165;52.388;4.928;2022-10-31T09:29:01;14.10;99.90
14172;DHT22;7165;52.388;4.928;2022-10-31T09:31:28;14.20;99.90
14172;DHT22;7165;52.388;4.928;2022-10-31T09:33:55;14.30;99.90
14172;DHT22;7165;52.388;4.928;2022-10-31T09:36:23;14.30;99.90
14172;DHT22;7165;52.388;4.928;2022-10-31T09:38:51;14.40;99.90
14172;DHT22;7165;52.388;4.928;2022-10-31T09:41:23;14.50;99.90
14172;DHT22;7165;52.388;4.928;2022-10-31T09:44:01;14.60;99.90
14172;DHT22;7165;52.388;4.928;2022-10-31T09:46:37;14.70;99.90
14172;DHT22;7165;52.388;4.928;2022-10-31T09:49:30;14.80;99.90
14172;DHT22;7165;52.388;4.928;2022-10-31T09:52:03;14.90;99.90
14172;DHT22;7165;52.388;4.928;2022-10-31T09:54:34;15.00;99.90
14172;DHT22;7165;52.388;4.928;2022-10-31T09:57:03;15.00;99.90
14172;DHT22;7165;52.388;4.928;2022-10-31T09:59:34;15.10;99.90
14172;DHT22;7165;52.388;4.928;2022-10-31T10:02:03;15.20;99.90
14172;DHT22;7165;52.388;4.928;2022-10-31T10:04:37;15.30;99.90
14172;DHT22;7165;52.388;4.928;2022-10-31T10:07:13;15.50;99.90
14172;DHT22;7165;52.388;4.928;2022-10-31T10:09:41;15.60;99.90
14172;DHT22;7165;52.388;4.928;2022-10-31T10:12:15;15.70;99.90
14172;DHT22;7165;52.388;4.928;2022-10-31T10:14:52;15.60;99.90
14172;DHT22;7165;52.388;4.928;2022-10-31T10:17:29;15.60;99.90
14172;DHT22;7165;52.388;4.928;2022-10-31T10:20:18;15.60;99.90
14172;DHT22;7165;52.388;4.928;2022-10-31T10:22:54;15.60;99.90
14172;DHT22;7165;52.388;4.928;2022-10-31T10:25:28;15.50;99.90
14172;DHT22;7165;52.388;4.928;2022-10-31T10:28:06;15.50;99.90
14172;DHT22;7165;52.388;4.928;2022-10-31T10:30:40;15.50;99.90
14172;DHT22;7165;52.388;4.928;2022-10-31T10:33:12;15.60;99.90
14172;DHT22;7165;52.388;4.928;2022-10-31T10:35:46;15.60;99.90
14172;DHT22;7165;52.388;4.928;2022-10-31T10:38:20;15.70;99.90
14172;DHT22;7165;52.388;4.928;2022-10-31T10:40:48;15.90;99.90
14172;DHT22;7165;52.388;4.928;2022-10-31T10:43:24;15.90;99.90
14172;DHT22;7165;52.388;4.928;2022-10-31T10:45:58;16.00;99.90
14172;DHT22;7165;52.388;4.928;2022-10-31T10:48:47;16.10;99.90
14172;DHT22;7165;52.388;4.928;2022-10-31T10:51:21;16.30;99.90
14172;DHT22;7165;52.388;4.928;2022-10-31T10:54:00;16.30;99.90
14172;DHT22;7165;52.388;4.928;2022-10-31T10:56:44;16.40;99.90
14172;DHT22;7165;52.388;4.928;2022-10-31T10:59:18;16.40;99.90
14172;DHT22;7165;52.388;4.928;2022-10-31T11:01:48;16.40;99.90
14172;DHT22;7165;52.388;4.928;2022-10-31T11:04:28;16.50;99.90
14172;DHT22;7165;52.388;4.928;2022-10-31T11:07:01;16.50;99.90
14172;DHT22;7165;52.388;4.928;2022-10-31T11:09:28;16.50;99.90
14172;DHT22;7165;52.388;4.928;2022-10-31T11:11:56;16.60;99.90
14172;DHT22;7165;52.388;4.928;2022-10-31T11:14:23;16.60;99.90
14172;DHT22;7165;52.388;4.928;2022-10-31T11:16:53;16.70;99.90
14172;DHT22;7165;52.388;4.928;2022-10-31T11:19:21;16.90;99.90
14172;DHT22;7165;52.388;4.928;2022-10-31T11:21:49;17.00;99.90
14172;DHT22;7165;52.388;4.928;2022-10-31T11:24:19;17.00;99.90
14172;DHT22;7165;52.388;4.928;2022-10-31T11:26:47;17.00;99.90
14172;DHT22;7165;52.388;4.928;2022-10-31T11:29:17;17.00;99.90
14172;DHT22;7165;52.388;4.928;2022-10-31T11:31:46;16.90;99.90
14172;DHT22;7165;52.388;4.928;2022-10-31T11:34:19;16.90;99.90
14172;DHT22;7165;52.388;4.928;2022-10-31T11:36:49;16.90;99.90
14172;DHT22;7165;52.388;4.928;2022-10-31T11:39:20;16.90;99.90
14172;DHT22;7165;52.388;4.928;2022-10-31T11:41:48;16.90;99.90
14172;DHT22;7165;52.388;4.928;2022-10-31T11:44:18;16.90;99.90
14172;DHT22;7165;52.388;4.928;2022-10-31T11:46:47;16.90;99.90
14172;DHT22;7165;52.388;4.928;2022-10-31T11:49:16;17.00;99.90
14172;DHT22;7165;52.388;4.928;2022-10-31T11:51:48;17.00;99.90
14172;DHT22;7165;52.388;4.928;2022-10-31T11:54:21;17.00;99.90
14172;DHT22;7165;52.388;4.928;2022-10-31T11:56:50;17.20;99.90
14172;DHT22;7165;52.388;4.928;2022-10-31T11:59:21;17.40;99.90
14172;DHT22;7165;52.388;4.928;2022-10-31T12:01:50;17.60;99.90
14172;DHT22;7165;52.388;4.928;2022-10-31T12:04:17;17.80;99.90
14172;DHT22;7165;52.388;4.928;2022-10-31T12:06:45;17.90;99.90
14172;DHT22;7165;52.388;4.928;2022-10-31T12:09:20;18.10;99.90
14172;DHT22;7165;52.388;4.928;2022-10-31T12:12:05;18.20;99.90
14172;DHT22;7165;52.388;4.928;2022-10-31T12:14:37;18.20;99.90
14172;DHT22;7165;52.388;4.928;2022-10-31T12:17:11;18.10;99.90
14172;DHT22;7165;52.388;4.928;2022-10-31T12:19:43;18.00;99.90
14172;DHT22;7165;52.388;4.928;2022-10-31T12:22:17;17.90;99.90
14172;DHT22;7165;52.388;4.928;2022-10-31T12:25:07;17.80;99.90
14172;DHT22;7165;52.388;4.928;2022-10-31T12:27:50;17.70;99.90
14172;DHT22;7165;52.388;4.928;2022-10-31T12:30:20;17.60;99.90
14172;DHT22;7165;52.388;4.928;2022-10-31T12:33:03;17.60;99.90
14172;DHT22;7165;52.388;4.928;2022-10-31T12:35:45;17.50;99.90
14172;DHT22;7165;52.388;4.928;2022-10-31T12:38:30;17.50;99.90
14172;DHT22;7165;52.388;4.928;2022-10-31T12:41:20;17.60;99.90
14172;DHT22;7165;52.388;4.928;2022-10-31T12:43:55;17.70;99.90
14172;DHT22;7165;52.388;4.928;2022-10-31T12:46:29;17.70;99.90
14172;DHT22;7165;52.388;4.928;2022-10-31T12:49:15;17.80;99.90
14172;DHT22;7165;52.388;4.928;2022-10-31T12:51:50;17.80;99.90
14172;DHT22;7165;52.388;4.928;2022-10-31T12:54:37;18.00;99.90
14172;DHT22;7165;52.388;4.928;2022-10-31T12:57:13;18.20;99.90
14172;DHT22;7165;52.388;4.928;2022-10-31T12:59:48;18.30;99.90
14172;DHT22;7165;52.388;4.928;2022-10-31T13:02:19;18.40;99.90
14172;DHT22;7165;52.388;4.928;2022-10-31T13:04:50;18.60;99.90
14172;DHT22;7165;52.388;4.928;2022-10-31T13:07:25;18.60;99.90
14172;DHT22;7165;52.388;4.928;2022-10-31T13:09:56;18.70;99.90
14172;DHT22;7165;52.388;4.928;2022-10-31T13:12:27;18.70;99.90
14172;DHT22;7165;52.388;4.928;2022-10-31T13:14:58;18.50;99.90
14172;DHT22;7165;52.388;4.928;2022-10-31T13:17:31;18.40;99.90
14172;DHT22;7165;52.388;4.928;2022-10-31T13:20:13;18.30;99.90
14172;DHT22;7165;52.388;4.928;2022-10-31T13:22:44;18.20;99.90
14172;DHT22;7165;52.388;4.928;2022-10-31T13:25:15;18.20;99.90
14172;DHT22;7165;52.388;4.928;2022-10-31T13:27:48;18.10;99.90
14172;DHT22;7165;52.388;4.928;2022-10-31T13:30:18;18.00;99.90
14172;DHT22;7165;52.388;4.928;2022-10-31T13:32:49;17.90;99.90
14172;DHT22;7165;52.388;4.928;2022-10-31T13:35:23;17.90;99.90
14172;DHT22;7165;52.388;4.928;2022-10-31T13:38:02;17.80;99.90
14172;DHT22;7165;52.388;4.928;2022-10-31T13:40:37;17.70;99.90
14172;DHT22;7165;52.388;4.928;2022-10-31T13:43:15;17.60;99.90
14172;DHT22;7165;52.388;4.928;2022-10-31T13:45:49;17.60;99.90
14172;DHT22;7165;52.388;4.928;2022-10-31T13:48:37;17.50;99.90
14172;DHT22;7165;52.388;4.928;2022-10-31T13:51:06;17.40;99.90
14172;DHT22;7165;52.388;4.928;2022-10-31T13:53:43;17.40;99.90
14172;DHT22;7165;52.388;4.928;2022-10-31T13:56:17;17.30;99.90
14172;DHT22;7165;52.388;4.928;2022-10-31T13:59:10;17.30;99.90
14172;DHT22;7165;52.388;4.928;2022-10-31T14:01:47;17.30;99.90
14172;DHT22;7165;52.388;4.928;2022-10-31T14:04:16;17.20;99.90
14172;DHT22;7165;52.388;4.928;2022-10-31T14:06:47;17.20;99.90
14172;DHT22;7165;52.388;4.928;2022-10-31T14:09:23;17.20;99.90
14172;DHT22;7165;52.388;4.928;2022-10-31T14:11:51;17.10;99.90
14172;DHT22;7165;52.388;4.928;2022-10-31T14:14:20;17.00;99.90
14172;DHT22;7165;52.388;4.928;2022-10-31T14:16:54;17.00;99.90
14172;DHT22;7165;52.388;4.928;2022-10-31T14:19:22;17.00;99.90
14172;DHT22;7165;52.388;4.928;2022-10-31T14:21:49;17.00;99.90
14172;DHT22;7165;52.388;4.928;2022-10-31T14:24:32;17.00;99.90
14172;DHT22;7165;52.388;4.928;2022-10-31T14:27:00;16.90;99.90
14172;DHT22;7165;52.388;4.928;2022-10-31T14:29:29;16.90;99.90
14172;DHT22;7165;52.388;4.928;2022-10-31T14:32:04;16.90;99.90
14172;DHT22;7165;52.388;4.928;2022-10-31T14:34:38;16.80;99.90
14172;DHT22;7165;52.388;4.928;2022-10-31T14:37:24;16.80;99.90
14172;DHT22;7165;52.388;4.928;2022-10-31T14:42:52;16.70;99.90
14172;DHT22;7165;52.388;4.928;2022-10-31T14:45:30;16.70;99.90
14172;DHT22;7165;52.388;4.928;2022-10-31T14:48:06;16.70;99.90
14172;DHT22;7165;52.388;4.928;2022-10-31T14:50:43;16.70;99.90
14172;DHT22;7165;52.388;4.928;2022-10-31T14:53:14;16.70;99.90
14172;DHT22;7165;52.388;4.928;2022-10-31T14:55:45;16.70;99.90
14172;DHT22;7165;52.388;4.928;2022-10-31T14:58:17;16.70;99.90
14172;DHT22;7165;52.388;4.928;2022-10-31T15:00:47;16.70;99.90
14172;DHT22;7165;52.388;4.928;2022-10-31T15:03:16;16.70;99.90
14172;DHT22;7165;52.388;4.928;2022-10-31T15:05:49;16.80;99.90
14172;DHT22;7165;52.388;4.928;2022-10-31T15:08:38;16.70;99.90
14172;DHT22;7165;52.388;4.928;2022-10-31T15:11:12;16.80;99.90
14172;DHT22;7165;52.388;4.928;2022-10-31T15:13:47;16.70;99.90
14172;DHT22;7165;52.388;4.928;2022-10-31T15:16:17;16.60;99.90
14172;DHT22;7165;52.388;4.928;2022-10-31T15:18:52;16.60;99.90
14172;DHT22;7165;52.388;4.928;2022-10-31T15:21:20;16.60;99.90
14172;DHT22;7165;52.388;4.928;2022-10-31T15:23:48;16.60;99.90
14172;DHT22;7165;52.388;4.928;2022-10-31T15:26:18;16.50;99.90
14172;DHT22;7165;52.388;4.928;2022-10-31T15:28:46;16.40;99.90
14172;DHT22;7165;52.388;4.928;2022-10-31T15:31:24;16.40;99.90
14172;DHT22;7165;52.388;4.928;2022-10-31T15:33:51;16.40;99.90
14172;DHT22;7165;52.388;4.928;2022-10-31T15:36:21;16.40;99.90
14172;DHT22;7165;52.388;4.928;2022-10-31T15:38:48;16.30;99.90
14172;DHT22;7165;52.388;4.928;2022-10-31T15:41:27;16.30;99.90
14172;DHT22;7165;52.388;4.928;2022-10-31T15:43:55;16.20;99.90
14172;DHT22;7165;52.388;4.928;2022-10-31T15:46:25;16.20;99.90
14172;DHT22;7165;52.388;4.928;2022-10-31T15:48:52;16.20;99.90
14172;DHT22;7165;52.388;4.928;2022-10-31T15:51:26;16.10;99.90
14172;DHT22;7165;52.388;4.928;2022-10-31T15:53:55;16.10;99.90
14172;DHT22;7165;52.388;4.928;2022-10-31T15:56:25;16.00;99.90
14172;DHT22;7165;52.388;4.928;2022-10-31T15:59:18;16.00;99.90
14172;DHT22;7165;52.388;4.928;2022-10-31T16:01:58;16.00;99.90
14172;DHT22;7165;52.388;4.928;2022-10-31T16:04:25;15.90;99.90
14172;DHT22;7165;52.388;4.928;2022-10-31T16:07:10;15.90;99.90
14172;DHT22;7165;52.388;4.928;2022-10-31T16:09:49;15.90;99.90